Time;durP1;ratioP1;P1;durP2;ratioP2;P2;SDS_P1;SDS_P2;PMS_P1;PMS_P2;Temp;Humidity;BMP_temperature;BMP_pressure;BME280_temperature;BME280_humidity;BME280_pressure;Samples;Min_cycle;Max_cycle;Signal;HPM_P1;HPM_P2
2022/07/03 00:05:14;;;;;;;3.10;1.00;;;19.40;99.90;;;;;;12414247;28;20092;-84
2022/07/03 00:11:16;;;;;;;1.70;0.65;;;19.30;99.90;;;;;;12406243;28;20537;-83
2022/07/03 00:17:18;;;;;;;1.77;0.80;;;19.20;99.90;;;;;;12427899;28;20045;-84
2022/07/03 00:23:22;;;;;;;1.98;1.00;;;19.10;99.90;;;;;;12430301;28;20121;-84
2022/07/03 00:29:29;;;;;;;1.65;0.93;;;19.00;99.90;;;;;;12420813;28;20054;-83
2022/07/03 00:35:32;;;;;;;1.83;0.90;;;19.00;99.90;;;;;;12423734;28;20041;-83
2022/07/03 00:41:36;;;;;;;2.10;0.80;;;19.00;99.90;;;;;;12439961;28;20049;-84
2022/07/03 00:47:40;;;;;;;2.28;0.88;;;18.90;99.90;;;;;;12410673;28;20422;-84
2022/07/03 00:53:45;;;;;;;1.50;0.85;;;18.90;99.90;;;;;;12412722;28;20157;-83
2022/07/03 00:59:48;;;;;;;3.88;1.10;;;18.70;99.90;;;;;;12413328;28;20482;-83
2022/07/03 01:05:53;;;;;;;2.78;1.20;;;18.70;99.90;;;;;;12427170;28;20055;-83
2022/07/03 01:12:03;;;;;;;1.83;1.30;;;18.70;99.90;;;;;;12427772;28;20133;-82
2022/07/03 01:18:24;;;;;;;2.63;1.58;;;18.60;99.90;;;;;;12412417;28;20490;-83
2022/07/03 01:24:48;;;;;;;2.53;1.00;;;18.60;99.90;;;;;;12414667;28;20042;-84
2022/07/03 01:30:54;;;;;;;2.40;1.38;;;18.60;99.90;;;;;;12454998;28;20061;-84
2022/07/03 01:36:59;;;;;;;3.17;1.20;;;18.50;99.90;;;;;;12441736;28;20279;-83
2022/07/03 01:43:03;;;;;;;1.95;1.20;;;18.30;99.90;;;;;;12420804;28;20058;-82
2022/07/03 01:49:08;;;;;;;1.90;1.08;;;18.30;99.90;;;;;;12413783;28;20085;-82
2022/07/03 01:55:13;;;;;;;4.00;1.33;;;18.10;99.90;;;;;;12412306;28;20042;-83
2022/07/03 02:01:20;;;;;;;3.17;1.42;;;18.20;99.90;;;;;;12419188;28;20042;-82
2022/07/03 02:07:30;;;;;;;1.85;1.10;;;18.20;99.90;;;;;;12413542;28;20057;-83
2022/07/03 02:13:38;;;;;;;3.10;1.55;;;18.20;99.90;;;;;;12413818;28;20049;-83
2022/07/03 02:19:55;;;;;;;3.53;1.70;;;18.10;99.90;;;;;;12409475;28;20062;-82
2022/07/03 02:26:01;;;;;;;4.53;1.80;;;18.00;99.90;;;;;;12419156;28;20127;-83
2022/07/03 02:32:10;;;;;;;2.35;1.30;;;18.10;99.90;;;;;;12432382;28;20042;-82
2022/07/03 02:38:18;;;;;;;5.47;1.70;;;18.00;99.90;;;;;;12434389;28;20069;-82
2022/07/03 02:44:22;;;;;;;2.33;1.45;;;17.90;99.90;;;;;;12424826;28;20200;-83
2022/07/03 02:50:28;;;;;;;4.57;1.40;;;17.80;99.90;;;;;;12406585;28;20054;-82
2022/07/03 02:56:46;;;;;;;2.25;1.27;;;17.70;99.90;;;;;;12391384;28;20195;-83
2022/07/03 03:02:55;;;;;;;3.97;1.35;;;17.60;99.90;;;;;;12401146;28;20050;-83
2022/07/03 03:09:03;;;;;;;2.78;1.75;;;17.40;99.90;;;;;;12423053;28;20056;-82
2022/07/03 03:15:05;;;;;;;3.67;1.65;;;17.20;99.90;;;;;;12407319;28;20107;-82
2022/07/03 03:21:12;;;;;;;3.35;1.80;;;17.00;99.90;;;;;;12413303;28;20137;-82
2022/07/03 03:27:15;;;;;;;7.53;2.35;;;16.90;99.90;;;;;;12407929;28;20111;-83
2022/07/03 03:33:18;;;;;;;2.67;1.70;;;16.90;99.90;;;;;;12420540;28;20095;-82
2022/07/03 03:39:20;;;;;;;3.10;1.70;;;17.00;99.90;;;;;;12444432;28;20057;-82
2022/07/03 03:45:22;;;;;;;3.03;1.90;;;17.00;99.90;;;;;;12441676;28;20069;-83
2022/07/03 03:51:24;;;;;;;4.63;2.00;;;17.00;99.90;;;;;;12425992;28;20129;-83
2022/07/03 03:57:26;;;;;;;8.63;2.22;;;17.00;99.90;;;;;;12437659;28;20045;-83
2022/07/03 04:03:29;;;;;;;5.50;1.90;;;17.00;99.90;;;;;;12439733;28;20096;-82
2022/07/03 04:09:30;;;;;;;5.63;2.45;;;17.00;99.90;;;;;;12422006;28;20145;-83
2022/07/03 04:15:32;;;;;;;6.32;2.28;;;17.20;99.90;;;;;;12418136;28;20045;-83
2022/07/03 04:21:34;;;;;;;4.57;1.90;;;17.40;99.90;;;;;;12419359;28;20073;-83
2022/07/03 04:27:36;;;;;;;3.60;1.80;;;17.20;99.90;;;;;;12412249;28;20137;-83
2022/07/03 04:33:58;;;;;;;3.72;1.92;;;17.20;99.90;;;;;;12426837;28;20483;-83
2022/07/03 04:40:00;;;;;;;3.60;1.80;;;17.20;99.90;;;;;;12410705;28;20108;-83
2022/07/03 04:46:02;;;;;;;3.70;1.83;;;17.30;99.90;;;;;;12423396;28;20119;-83
2022/07/03 04:52:04;;;;;;;4.57;1.90;;;17.40;99.90;;;;;;12403732;28;20556;-83
2022/07/03 04:58:06;;;;;;;5.80;1.90;;;17.50;99.90;;;;;;12415322;28;20096;-83
2022/07/03 05:04:08;;;;;;;5.60;1.80;;;17.50;99.90;;;;;;12409650;28;20057;-82
2022/07/03 05:10:09;;;;;;;4.93;1.63;;;17.40;99.90;;;;;;12420253;28;20132;-83
2022/07/03 05:16:12;;;;;;;2.70;1.00;;;17.50;99.90;;;;;;12419286;28;20053;-83
2022/07/03 05:22:14;;;;;;;3.75;1.30;;;17.60;99.90;;;;;;12410125;28;20609;-83
2022/07/03 05:28:16;;;;;;;3.25;1.20;;;17.90;99.90;;;;;;12392936;28;20050;-83
2022/07/03 05:34:17;;;;;;;3.95;1.98;;;18.10;99.90;;;;;;12416853;28;20092;-83
2022/07/03 05:40:19;;;;;;;4.40;1.10;;;18.30;99.90;;;;;;12420985;28;20084;-83
2022/07/03 05:46:21;;;;;;;2.55;1.10;;;18.50;99.90;;;;;;12422602;28;20060;-83
2022/07/03 05:52:23;;;;;;;2.60;1.10;;;18.60;99.90;;;;;;12402205;28;20046;-83
2022/07/03 05:58:25;;;;;;;2.88;1.08;;;18.90;99.90;;;;;;12410340;28;20466;-83
2022/07/03 06:04:26;;;;;;;2.22;1.10;;;19.10;99.90;;;;;;12417485;28;20079;-84
2022/07/03 06:10:29;;;;;;;1.67;1.08;;;19.10;99.90;;;;;;12423606;28;20065;-83
2022/07/03 06:16:31;;;;;;;3.53;1.10;;;19.20;99.90;;;;;;12426585;28;20045;-83
2022/07/03 06:22:33;;;;;;;9.57;1.60;;;19.10;99.90;;;;;;12429787;28;20050;-82
2022/07/03 06:28:35;;;;;;;3.10;0.90;;;19.20;99.90;;;;;;12430940;28;20188;-83
2022/07/03 06:34:38;;;;;;;5.53;1.63;;;19.30;99.90;;;;;;12419379;28;20041;-82
2022/07/03 06:40:39;;;;;;;2.25;1.13;;;19.50;99.90;;;;;;12432981;28;20116;-82
2022/07/03 06:46:41;;;;;;;1.83;1.23;;;19.60;99.90;;;;;;12421561;28;20096;-83
2022/07/03 06:52:46;;;;;;;2.63;1.10;;;19.70;99.90;;;;;;12424435;28;20184;-83
2022/07/03 06:58:47;;;;;;;1.95;1.00;;;19.70;99.90;;;;;;12453096;28;20133;-84
2022/07/03 07:04:49;;;;;;;6.20;1.38;;;19.70;99.90;;;;;;12421225;28;20041;-83
2022/07/03 07:10:51;;;;;;;3.58;1.30;;;19.80;99.90;;;;;;12453779;28;20282;-83
2022/07/03 07:16:52;;;;;;;2.85;1.02;;;19.80;99.90;;;;;;12422755;28;20042;-83
2022/07/03 07:22:54;;;;;;;2.75;1.10;;;20.00;99.90;;;;;;12405204;28;20186;-83
2022/07/03 07:28:56;;;;;;;3.25;1.10;;;20.10;99.90;;;;;;12422626;28;20058;-82
2022/07/03 07:34:58;;;;;;;2.47;1.02;;;20.30;99.90;;;;;;12405128;28;20079;-84
2022/07/03 07:41:00;;;;;;;2.97;0.98;;;20.30;99.90;;;;;;12414324;28;20485;-83
2022/07/03 07:47:02;;;;;;;2.63;1.00;;;20.40;99.90;;;;;;12434501;28;20464;-83
2022/07/03 07:53:03;;;;;;;3.42;0.93;;;20.50;99.90;;;;;;12428735;28;20091;-82
2022/07/03 07:59:05;;;;;;;2.30;0.90;;;20.50;99.90;;;;;;12408516;28;20047;-82
2022/07/03 08:11:30;;;;;;;1.92;0.88;;;20.70;99.90;;;;;;12424654;28;20046;-83
2022/07/03 08:17:31;;;;;;;1.80;0.77;;;21.00;99.90;;;;;;12420553;28;20510;-82
2022/07/03 08:23:33;;;;;;;4.03;0.80;;;21.10;99.90;;;;;;12422538;28;20155;-84
2022/07/03 08:29:35;;;;;;;1.88;0.80;;;21.40;99.90;;;;;;12426029;28;20062;-82
2022/07/03 08:35:37;;;;;;;2.67;0.68;;;21.70;99.90;;;;;;12429696;28;20181;-82
2022/07/03 08:41:42;;;;;;;2.72;1.05;;;21.90;99.90;;;;;;12414236;28;20038;-83
2022/07/03 08:47:45;;;;;;;2.35;0.95;;;21.90;99.90;;;;;;12424411;28;20081;-82
2022/07/03 08:53:48;;;;;;;2.90;0.93;;;22.00;99.90;;;;;;12417143;28;20455;-82
2022/07/03 08:59:52;;;;;;;10.33;0.93;;;22.10;99.90;;;;;;12432836;28;20121;-83
2022/07/03 09:05:57;;;;;;;2.60;0.75;;;22.30;99.90;;;;;;12425484;28;20552;-83
2022/07/03 09:11:59;;;;;;;1.33;0.50;;;22.20;99.90;;;;;;12413498;28;20077;-83
2022/07/03 09:18:04;;;;;;;2.35;0.70;;;22.40;99.90;;;;;;12412804;28;20123;-83
2022/07/03 09:24:10;;;;;;;2.03;0.70;;;22.60;99.90;;;;;;12417077;28;20120;-82
2022/07/03 09:30:19;;;;;;;2.65;0.63;;;22.90;99.90;;;;;;12412057;28;20497;-83
2022/07/03 09:36:38;;;;;;;5.32;1.23;;;23.00;99.90;;;;;;12401785;28;20080;-83
2022/07/03 09:42:40;;;;;;;5.47;0.70;;;23.20;99.90;;;;;;12427086;28;20045;-83
2022/07/03 09:48:42;;;;;;;1.55;0.40;;;23.40;99.90;;;;;;12438156;28;20045;-84
2022/07/03 09:54:44;;;;;;;2.22;0.65;;;23.60;99.90;;;;;;12435605;28;20046;-82
2022/07/03 10:00:47;;;;;;;1.73;0.47;;;23.70;99.90;;;;;;12414818;28;20042;-83
2022/07/03 10:06:57;;;;;;;3.35;0.60;;;23.90;99.90;;;;;;12422605;28;20050;-83
2022/07/03 10:12:59;;;;;;;2.03;0.50;;;24.10;99.90;;;;;;12425890;28;20070;-85
2022/07/03 10:19:04;;;;;;;1.53;0.70;;;24.40;99.90;;;;;;12413583;28;20041;-83
2022/07/03 10:25:07;;;;;;;3.03;0.70;;;24.90;99.90;;;;;;12426368;28;20124;-85
2022/07/03 10:31:09;;;;;;;2.75;0.70;;;25.20;99.90;;;;;;12403024;28;20271;-84
2022/07/03 10:37:18;;;;;;;3.73;0.60;;;25.60;99.90;;;;;;12407265;28;20096;-85
2022/07/03 10:50:15;;;;;;;2.60;0.65;;;26.30;99.90;;;;;;12357979;28;20047;-83
2022/07/03 10:56:17;;;;;;;2.95;0.80;;;26.10;99.90;;;;;;12362193;28;20042;-83
2022/07/03 11:02:30;;;;;;;2.80;0.67;;;26.00;99.90;;;;;;12383241;28;20057;-83
2022/07/03 11:09:02;;;;;;;2.70;0.40;;;26.20;99.90;;;;;;12373621;28;20505;-82
2022/07/03 11:15:29;;;;;;;0.68;0.38;;;25.90;99.90;;;;;;12370285;28;20688;-84
2022/07/03 11:21:36;;;;;;;1.77;0.50;;;26.30;99.90;;;;;;12385888;28;20546;-80
2022/07/03 11:27:37;;;;;;;3.83;0.90;;;26.00;99.90;;;;;;12375175;28;20058;-84
2022/07/03 11:33:42;;;;;;;2.20;0.65;;;26.00;99.90;;;;;;12368852;28;20144;-83
2022/07/03 11:39:47;;;;;;;1.02;0.50;;;25.70;99.90;;;;;;12390117;28;20416;-83
2022/07/03 11:45:50;;;;;;;3.05;0.55;;;25.80;99.90;;;;;;12435815;28;20565;-85
2022/07/03 11:52:00;;;;;;;1.33;0.50;;;26.20;99.90;;;;;;12413604;28;20076;-83
2022/07/03 11:58:02;;;;;;;5.35;0.50;;;26.10;99.90;;;;;;12429669;28;20062;-82
2022/07/03 12:04:22;;;;;;;3.43;0.73;;;26.10;99.90;;;;;;12417076;28;20096;-81
2022/07/03 12:10:39;;;;;;;1.38;0.77;;;25.60;99.90;;;;;;12432878;28;20052;-82
2022/07/03 12:16:41;;;;;;;3.13;0.50;;;25.50;99.90;;;;;;12439482;28;20054;-83
2022/07/03 12:22:45;;;;;;;1.42;0.60;;;25.80;99.90;;;;;;12445127;28;20075;-82
2022/07/03 12:28:47;;;;;;;3.33;0.80;;;26.00;99.90;;;;;;12452017;28;20053;-86
2022/07/03 12:34:49;;;;;;;1.53;0.60;;;26.40;99.90;;;;;;12412755;28;20107;-82
2022/07/03 12:41:10;;;;;;;1.67;0.70;;;27.00;99.90;;;;;;12420492;28;20133;-81
2022/07/03 12:47:16;;;;;;;4.85;0.47;;;26.70;99.90;;;;;;12418574;28;20335;-83
2022/07/03 12:53:29;;;;;;;1.45;0.52;;;26.10;99.90;;;;;;12421648;28;20448;-84
2022/07/03 12:59:31;;;;;;;;;;;26.10;99.90;;;;;;12429685;28;20493;-81
2022/07/03 13:05:42;;;;;;;2.72;0.70;;;26.40;99.90;;;;;;12418354;28;19929;-82
2022/07/03 13:11:43;;;;;;;1.63;0.50;;;26.50;99.90;;;;;;12427626;28;20093;-82
2022/07/03 13:17:54;;;;;;;1.10;0.50;;;26.40;99.90;;;;;;12431676;28;20050;-81
2022/07/03 13:23:57;;;;;;;2.65;0.88;;;26.40;99.90;;;;;;12433432;28;20088;-81
2022/07/03 13:29:58;;;;;;;2.50;0.70;;;26.40;99.90;;;;;;12414266;28;20145;-82
2022/07/03 13:36:00;;;;;;;1.57;0.70;;;26.20;99.90;;;;;;12404314;28;20077;-82
2022/07/03 13:42:04;;;;;;;3.13;0.70;;;25.80;99.90;;;;;;12424941;28;20566;-83
2022/07/03 13:48:06;;;;;;;2.42;0.80;;;25.80;99.90;;;;;;12418579;28;20097;-83
2022/07/03 13:54:08;;;;;;;1.77;0.60;;;26.30;99.90;;;;;;12427594;28;20087;-83
2022/07/03 14:00:10;;;;;;;3.85;0.80;;;26.50;99.90;;;;;;12410265;28;20057;-83
2022/07/03 14:06:13;;;;;;;3.58;0.90;;;26.80;99.90;;;;;;12411985;28;20472;-81
2022/07/03 14:12:14;;;;;;;2.60;0.88;;;26.70;99.90;;;;;;12413829;28;20049;-81
2022/07/03 14:18:16;;;;;;;2.20;0.83;;;26.40;99.90;;;;;;12412029;28;20050;-80
2022/07/03 14:24:18;;;;;;;2.47;1.00;;;26.50;99.90;;;;;;12413852;28;20580;-81
2022/07/03 14:36:40;;;;;;;2.17;1.00;;;26.30;99.90;;;;;;12429046;28;20092;-81
2022/07/03 14:42:46;;;;;;;4.95;1.10;;;26.20;99.90;;;;;;12411795;28;20590;-81
2022/07/03 14:48:47;;;;;;;2.67;1.00;;;26.20;99.90;;;;;;12411166;28;20095;-80
2022/07/03 14:54:52;;;;;;;3.15;1.30;;;26.40;99.90;;;;;;12411307;28;20067;-81
2022/07/03 15:00:56;;;;;;;4.50;1.13;;;26.40;99.90;;;;;;12408218;28;20110;-81
2022/07/03 15:06:59;;;;;;;4.80;1.13;;;26.30;99.90;;;;;;12440466;28;20031;-82
2022/07/03 15:13:04;;;;;;;2.85;1.15;;;26.00;99.90;;;;;;12427089;28;20068;-81
2022/07/03 15:19:09;;;;;;;3.00;1.10;;;25.90;99.90;;;;;;12429735;28;20149;-80
2022/07/03 15:25:12;;;;;;;4.75;1.08;;;25.90;99.90;;;;;;12437341;28;20125;-81
2022/07/03 15:31:15;;;;;;;3.67;1.10;;;25.80;99.90;;;;;;12414253;28;20632;-81
2022/07/03 15:37:32;;;;;;;3.53;1.08;;;25.90;99.90;;;;;;12437377;28;20053;-81
2022/07/03 15:44:00;;;;;;;3.10;1.05;;;26.00;99.90;;;;;;12428884;28;20129;-82
2022/07/03 15:50:02;;;;;;;198.73;135.73;;;26.10;99.90;;;;;;12413791;28;20115;-81
2022/07/03 15:56:06;;;;;;;3.63;1.57;;;25.90;99.90;;;;;;12433759;28;20042;-81
2022/07/03 16:02:13;;;;;;;2.53;1.10;;;25.90;99.90;;;;;;12418587;28;20107;-81
2022/07/03 16:08:17;;;;;;;3.83;0.80;;;25.80;99.90;;;;;;12408790;28;20072;-82
2022/07/03 16:14:19;;;;;;;2.45;1.10;;;25.80;99.90;;;;;;12435429;28;20046;-81
2022/07/03 16:20:23;;;;;;;5.40;1.20;;;26.00;99.90;;;;;;12414221;28;20546;-81
2022/07/03 16:26:28;;;;;;;5.32;0.95;;;26.00;99.90;;;;;;12412069;28;20125;-82
2022/07/03 16:32:38;;;;;;;8.07;2.90;;;26.10;99.90;;;;;;12416666;28;20131;-82
2022/07/03 16:38:46;;;;;;;2.80;0.80;;;26.00;99.90;;;;;;12412321;28;20096;-81
2022/07/03 16:44:51;;;;;;;7.78;0.73;;;25.60;99.90;;;;;;12411481;28;20133;-80
2022/07/03 16:50:57;;;;;;;4.30;0.70;;;25.30;99.90;;;;;;12405680;28;20096;-81
2022/07/03 16:57:00;;;;;;;4.32;0.60;;;25.00;99.90;;;;;;12425104;28;20047;-80
2022/07/03 17:03:04;;;;;;;3.73;0.80;;;24.80;99.90;;;;;;12422305;28;20092;-81
2022/07/03 17:09:12;;;;;;;4.65;1.15;;;24.40;99.90;;;;;;12414359;28;20114;-82
2022/07/03 17:15:15;;;;;;;3.03;0.82;;;24.40;99.90;;;;;;12433147;28;20042;-82
2022/07/03 17:21:24;;;;;;;3.65;0.73;;;24.30;99.90;;;;;;12418814;28;20046;-80
2022/07/03 17:27:29;;;;;;;2.20;0.80;;;24.10;99.90;;;;;;12431932;28;20088;-81
2022/07/03 17:33:32;;;;;;;3.15;0.80;;;24.00;99.90;;;;;;12411481;28;20081;-82
2022/07/03 17:39:34;;;;;;;;;;;23.90;99.90;;;;;;12436105;28;20042;-81
2022/07/03 17:45:39;;;;;;;1.90;0.60;;;24.00;99.90;;;;;;12445728;28;19928;-81
2022/07/03 17:51:47;;;;;;;2.70;0.80;;;24.00;99.90;;;;;;12409397;28;20034;-81
2022/07/03 17:57:50;;;;;;;2.75;0.80;;;23.70;99.90;;;;;;12432240;28;20050;-81
2022/07/03 18:03:52;;;;;;;;;;;23.40;99.90;;;;;;12430150;28;20055;-81
2022/07/03 18:10:00;;;;;;;1.95;0.65;;;23.30;99.90;;;;;;12398123;28;20372;-81
2022/07/03 18:16:13;;;;;;;3.28;0.70;;;23.20;99.90;;;;;;12419297;28;20561;-81
2022/07/03 18:22:15;;;;;;;3.63;0.70;;;23.10;99.90;;;;;;12409659;28;20046;-81
2022/07/03 18:28:17;;;;;;;3.20;0.95;;;23.00;99.90;;;;;;12417953;28;20099;-81
2022/07/03 18:34:24;;;;;;;2.28;0.70;;;23.00;99.90;;;;;;12410776;28;20042;-81
2022/07/03 18:40:26;;;;;;;3.83;0.70;;;22.80;99.90;;;;;;12406613;28;20122;-81
2022/07/03 18:46:28;;;;;;;1.75;0.70;;;22.80;99.90;;;;;;12431331;28;20125;-81
2022/07/03 18:52:42;;;;;;;1.57;0.57;;;22.60;99.90;;;;;;12423765;28;20141;-81
2022/07/03 18:59:00;;;;;;;4.90;1.10;;;22.50;99.90;;;;;;12411365;28;20452;-81
2022/07/03 19:05:04;;;;;;;3.42;0.70;;;22.30;99.90;;;;;;12490776;22;20053;-80
2022/07/03 19:11:08;;;;;;;2.90;0.90;;;22.10;99.90;;;;;;12496963;28;20045;-80
2022/07/03 19:24:22;;;;;;;3.38;1.00;;;21.50;99.90;;;;;;12499390;28;20424;-35
2022/07/03 19:30:28;;;;;;;5.82;1.00;;;21.40;99.90;;;;;;12503510;28;20050;-38
2022/07/03 19:36:34;;;;;;;6.47;0.90;;;21.40;99.90;;;;;;12500592;28;20045;-36
2022/07/03 19:42:42;;;;;;;6.40;0.90;;;21.20;99.90;;;;;;12512116;28;20519;-38
2022/07/03 19:48:51;;;;;;;;;;;21.20;99.90;;;;;;12490600;28;20049;-38
2022/07/03 19:54:59;;;;;;;3.47;0.90;;;21.00;99.90;;;;;;12487331;28;19921;-38
2022/07/03 20:01:09;;;;;;;2.03;0.95;;;21.10;99.90;;;;;;12498374;28;20072;-35
2022/07/03 20:07:17;;;;;;;2.67;1.00;;;21.00;99.90;;;;;;12492883;28;20046;-35
2022/07/03 20:13:32;;;;;;;2.83;0.90;;;20.70;99.90;;;;;;12493863;28;20041;-35
2022/07/03 20:19:43;;;;;;;2.33;0.90;;;20.60;99.90;;;;;;12494674;28;20054;-35
2022/07/03 20:25:58;;;;;;;3.33;1.08;;;20.50;99.90;;;;;;12483722;28;20060;-38
2022/07/03 20:32:10;;;;;;;2.22;1.10;;;20.30;99.90;;;;;;12498440;28;20116;-35
2022/07/03 20:38:15;;;;;;;4.50;0.80;;;20.30;99.90;;;;;;12496567;28;20045;-37
2022/07/03 20:44:41;;;;;;;2.13;1.00;;;20.20;99.90;;;;;;12507507;28;20041;-38
2022/07/03 20:51:18;;;;;;;3.10;0.88;;;20.10;99.90;;;;;;12498748;28;20056;-35
2022/07/03 20:57:24;;;;;;;2.97;0.70;;;19.80;99.90;;;;;;12489346;28;20328;-36
2022/07/03 21:03:35;;;;;;;6.00;1.20;;;19.80;99.90;;;;;;12499937;28;20056;-35
2022/07/03 21:09:43;;;;;;;2.13;0.85;;;19.70;99.90;;;;;;12499222;28;20522;-38
2022/07/03 21:15:51;;;;;;;2.17;0.90;;;19.80;99.90;;;;;;12473968;28;20052;-36
2022/07/03 21:22:05;;;;;;;1.40;0.75;;;19.70;99.90;;;;;;12498423;28;20042;-41
2022/07/03 21:28:13;;;;;;;2.90;0.90;;;19.70;99.90;;;;;;12496374;28;20050;-39
2022/07/03 21:34:22;;;;;;;2.97;0.90;;;19.80;99.90;;;;;;12475364;28;20118;-38
2022/07/03 21:40:32;;;;;;;3.97;0.80;;;19.70;99.90;;;;;;12491387;28;20085;-38
2022/07/03 21:46:43;;;;;;;1.83;0.75;;;19.60;99.90;;;;;;12489480;28;20468;-38
2022/07/03 21:52:57;;;;;;;1.98;0.80;;;19.50;99.90;;;;;;12477776;28;20060;-35
2022/07/03 21:59:12;;;;;;;2.97;0.95;;;19.50;99.90;;;;;;12457568;28;20456;-38
2022/07/03 22:05:23;;;;;;;1.52;0.82;;;19.50;99.90;;;;;;12481855;28;20053;-35
2022/07/03 22:11:30;;;;;;;2.47;0.88;;;19.40;99.90;;;;;;12493407;28;20053;-38
2022/07/03 22:17:45;;;;;;;2.40;1.00;;;19.30;99.90;;;;;;12459270;28;20052;-38
2022/07/03 22:23:56;;;;;;;3.08;1.00;;;19.30;99.90;;;;;;12479594;28;20411;-38
2022/07/03 22:30:10;;;;;;;2.28;0.90;;;19.20;99.90;;;;;;12482988;28;20053;-35
2022/07/03 22:36:24;;;;;;;3.22;0.90;;;19.10;99.90;;;;;;12428599;28;20049;-38
2022/07/03 22:42:32;;;;;;;2.38;0.95;;;19.10;99.90;;;;;;12493832;28;20053;-35
2022/07/03 22:48:48;;;;;;;1.33;0.80;;;19.20;99.90;;;;;;12496210;28;20053;-35
2022/07/03 22:54:57;;;;;;;1.77;0.80;;;19.10;99.90;;;;;;12465293;28;20448;-38
2022/07/03 23:01:10;;;;;;;2.50;0.85;;;18.90;99.90;;;;;;12493398;28;20095;-38
2022/07/03 23:07:24;;;;;;;1.10;0.75;;;18.80;99.90;;;;;;12485324;28;20481;-38
2022/07/03 23:13:40;;;;;;;1.02;0.70;;;18.70;99.90;;;;;;12478600;28;20057;-35
2022/07/03 23:19:50;;;;;;;4.03;1.10;;;18.40;99.90;;;;;;12437779;28;20046;-36
2022/07/03 23:26:05;;;;;;;2.15;1.08;;;18.20;99.90;;;;;;12434136;28;20057;-38
2022/07/03 23:32:17;;;;;;;1.73;0.82;;;18.10;99.90;;;;;;12440515;28;20409;-36
2022/07/03 23:38:34;;;;;;;3.55;1.42;;;17.80;99.90;;;;;;12438841;28;20057;-38
2022/07/03 23:44:51;;;;;;;3.88;1.20;;;17.70;99.90;;;;;;12437964;28;20132;-35
2022/07/03 23:51:11;;;;;;;2.83;1.10;;;17.70;99.90;;;;;;12451683;28;20123;-39
2022/07/03 23:57:22;;;;;;;1.80;0.90;;;17.80;99.90;;;;;;12440142;28;20054;-38
